Time;durP1;ratioP1;P1;durP2;ratioP2;P2;SDS_P1;SDS_P2;PMS_P1;PMS_P2;Temp;Humidity;BMP_temperature;BMP_pressure;BME280_temperature;BME280_humidity;BME280_pressure;Samples;Min_cycle;Max_cycle;Signal;HPM_P1;HPM_P2
2023/04/26 04:02:32;;;;;;;3.57;3.27;;;8.70;75.90;;;;;;5102394;23;20490;-74
2023/04/26 04:04:58;;;;;;;4.10;3.60;;;8.70;75.90;;;;;;4976926;28;20473;-74
2023/04/26 04:07:25;;;;;;;3.50;3.00;;;8.70;76.00;;;;;;4977128;28;20446;-75
2023/04/26 04:09:52;;;;;;;3.67;3.10;;;8.70;76.20;;;;;;4976675;28;20442;-75
2023/04/26 04:12:18;;;;;;;3.70;2.93;;;8.70;76.40;;;;;;4976589;28;20470;-75
2023/04/26 04:14:46;;;;;;;3.30;3.00;;;8.70;76.40;;;;;;4977131;28;20454;-74
2023/04/26 04:17:12;;;;;;;5.00;3.00;;;8.70;76.20;;;;;;4976576;28;20446;-75
2023/04/26 04:19:40;;;;;;;3.83;2.80;;;8.70;76.10;;;;;;4976447;28;20521;-75
2023/04/26 04:22:07;;;;;;;5.40;4.10;;;8.60;76.40;;;;;;4976402;28;20545;-75
2023/04/26 04:24:34;;;;;;;4.30;3.90;;;8.60;76.40;;;;;;4976821;28;20450;-75
2023/04/26 04:27:02;;;;;;;4.40;4.00;;;8.60;76.50;;;;;;4976509;28;20872;-75
2023/04/26 04:29:28;;;;;;;5.00;4.50;;;8.70;76.50;;;;;;4976352;28;20887;-75
2023/04/26 04:31:55;;;;;;;5.40;4.90;;;8.70;76.50;;;;;;4976228;28;20537;-75
2023/04/26 04:34:23;;;;;;;5.20;4.50;;;8.70;76.60;;;;;;4976223;28;20467;-75
2023/04/26 04:36:51;;;;;;;6.43;5.07;;;8.80;76.70;;;;;;4975895;28;20830;-75
2023/04/26 04:39:18;;;;;;;4.93;4.30;;;8.80;76.80;;;;;;4975768;28;20939;-75
2023/04/26 04:41:46;;;;;;;5.20;4.70;;;8.80;76.90;;;;;;4976237;28;20541;-75
2023/04/26 04:44:14;;;;;;;6.70;6.10;;;8.90;77.00;;;;;;4976105;28;20462;-75
2023/04/26 04:46:41;;;;;;;5.23;4.73;;;8.90;77.00;;;;;;4975750;28;20956;-75
2023/04/26 04:49:09;;;;;;;5.17;4.70;;;9.00;76.80;;;;;;4975661;28;20939;-75
2023/04/26 04:51:36;;;;;;;5.63;4.17;;;9.10;77.00;;;;;;4975540;28;20462;-75
2023/04/26 04:54:11;;;;;;;4.80;4.03;;;9.10;76.80;;;;;;4976036;28;20541;-75
2023/04/26 04:56:38;;;;;;;4.20;3.80;;;9.20;77.10;;;;;;4975544;28;20908;-75
2023/04/26 04:59:05;;;;;;;5.13;3.80;;;9.30;76.90;;;;;;4975784;28;20455;-75
2023/04/26 05:01:32;;;;;;;4.43;4.00;;;9.40;76.90;;;;;;4975263;28;20878;-75
2023/04/26 05:03:59;;;;;;;5.17;4.03;;;9.50;76.40;;;;;;4974765;28;20488;-75
2023/04/26 05:06:26;;;;;;;4.60;4.07;;;9.60;76.30;;;;;;4975654;28;20541;-75
2023/04/26 05:08:53;;;;;;;4.47;3.83;;;9.70;76.20;;;;;;4975595;28;20450;-75
2023/04/26 05:11:21;;;;;;;4.43;3.53;;;9.80;76.10;;;;;;4975439;28;20473;-75
2023/04/26 05:13:49;;;;;;;4.33;3.70;;;9.80;75.80;;;;;;4975508;28;20451;-75
2023/04/26 05:16:15;;;;;;;4.03;3.63;;;9.80;75.80;;;;;;4975482;28;20509;-75
2023/04/26 05:18:42;;;;;;;5.67;4.70;;;9.90;75.50;;;;;;4975391;28;20505;-75
2023/04/26 05:21:09;;;;;;;4.37;3.53;;;9.90;75.70;;;;;;4975215;28;20522;-75
2023/04/26 05:23:35;;;;;;;4.13;3.73;;;10.00;75.90;;;;;;4975321;28;20450;-75
2023/04/26 05:26:03;;;;;;;4.53;4.03;;;10.00;76.00;;;;;;4975273;28;20528;-75
2023/04/26 05:28:31;;;;;;;5.00;3.93;;;10.10;76.00;;;;;;4975353;28;20454;-75
2023/04/26 05:30:58;;;;;;;4.23;3.83;;;10.20;75.90;;;;;;4975155;28;20462;-75
2023/04/26 05:33:25;;;;;;;4.07;3.67;;;10.30;75.60;;;;;;4975224;28;20485;-75
2023/04/26 05:35:53;;;;;;;4.63;3.60;;;10.50;75.30;;;;;;4975149;28;20505;-75
2023/04/26 05:38:20;;;;;;;5.00;3.47;;;10.60;74.70;;;;;;4975008;28;20458;-75
2023/04/26 05:40:47;;;;;;;4.00;3.30;;;10.80;74.30;;;;;;4978071;28;20486;-75
2023/04/26 05:43:14;;;;;;;4.63;3.30;;;10.80;72.40;;;;;;4993090;28;20466;-74
2023/04/26 05:45:50;;;;;;;4.43;3.43;;;10.80;72.30;;;;;;4997698;28;20478;-74
2023/04/26 05:48:17;;;;;;;5.63;3.10;;;10.90;71.80;;;;;;4978877;28;20489;-75
2023/04/26 05:50:43;;;;;;;5.20;2.87;;;11.00;71.30;;;;;;4974916;28;20466;-75
2023/04/26 05:53:10;;;;;;;3.63;3.33;;;11.10;70.90;;;;;;4975047;28;20794;-75
2023/04/26 05:55:37;;;;;;;3.90;3.17;;;11.10;70.20;;;;;;4974480;28;20994;-75
2023/04/26 05:58:03;;;;;;;3.93;3.43;;;11.20;70.70;;;;;;4974823;28;20934;-75
2023/04/26 06:00:31;;;;;;;4.20;3.57;;;11.20;70.40;;;;;;4974523;28;20486;-75
2023/04/26 06:02:59;;;;;;;3.50;3.03;;;11.40;69.50;;;;;;4974563;28;20904;-75
2023/04/26 06:05:26;;;;;;;5.00;3.80;;;11.50;69.40;;;;;;4974428;28;20931;-75
2023/04/26 06:07:53;;;;;;;4.23;3.47;;;11.70;68.90;;;;;;4974818;28;20856;-75
2023/04/26 06:10:20;;;;;;;3.33;2.77;;;11.60;68.50;;;;;;4974593;28;20445;-75
2023/04/26 06:12:47;;;;;;;3.50;2.40;;;11.80;67.30;;;;;;4974702;28;20454;-75
2023/04/26 06:15:13;;;;;;;5.67;3.17;;;12.10;66.30;;;;;;4974343;28;20516;-75
2023/04/26 06:17:40;;;;;;;3.40;2.63;;;12.30;66.20;;;;;;4974548;28;20528;-75
2023/04/26 06:20:09;;;;;;;3.93;3.57;;;12.40;65.80;;;;;;4974446;28;20516;-75
2023/04/26 06:22:36;;;;;;;3.93;3.00;;;12.30;65.70;;;;;;4974464;28;20470;-75
2023/04/26 06:25:04;;;;;;;4.27;2.33;;;12.50;64.60;;;;;;4974436;28;20882;-75
2023/04/26 06:27:31;;;;;;;3.20;2.60;;;12.50;64.30;;;;;;4974488;28;20504;-75
2023/04/26 06:29:58;;;;;;;3.13;2.17;;;12.50;62.70;;;;;;4974418;28;20481;-75
2023/04/26 06:32:24;;;;;;;2.57;2.37;;;12.50;62.60;;;;;;4974064;28;20990;-75
2023/04/26 06:34:51;;;;;;;2.90;1.80;;;12.60;62.70;;;;;;4974343;28;20458;-75
2023/04/26 06:37:19;;;;;;;3.50;2.77;;;12.70;62.00;;;;;;4974324;28;21022;-75
2023/04/26 06:39:45;;;;;;;2.60;1.53;;;12.50;62.80;;;;;;4974316;28;20450;-75
2023/04/26 06:42:12;;;;;;;2.23;1.43;;;12.10;57.40;;;;;;4974230;28;20498;-75
2023/04/26 06:44:39;;;;;;;2.47;1.27;;;11.50;55.40;;;;;;4974313;28;20450;-72
2023/04/26 06:47:08;;;;;;;2.57;1.70;;;11.30;57.60;;;;;;4974296;28;20511;-75
2023/04/26 06:49:35;;;;;;;2.57;1.90;;;11.30;60.30;;;;;;4973911;28;20959;-73
2023/04/26 06:52:01;;;;;;;3.30;2.40;;;11.50;63.20;;;;;;4974207;28;20466;-75
2023/04/26 06:54:30;;;;;;;3.03;2.70;;;11.40;64.30;;;;;;4974238;28;20450;-75
2023/04/26 06:56:57;;;;;;;4.13;2.77;;;11.30;64.60;;;;;;4974366;28;20454;-75
2023/04/26 06:59:23;;;;;;;3.73;2.43;;;11.00;64.70;;;;;;4974213;28;20450;-75
2023/04/26 07:01:50;;;;;;;3.53;2.53;;;11.00;66.40;;;;;;4973746;28;20494;-75
2023/04/26 07:04:19;;;;;;;4.67;2.90;;;11.30;65.80;;;;;;4973801;28;20943;-76
2023/04/26 07:06:46;;;;;;;3.27;2.67;;;11.80;65.90;;;;;;4974076;28;20540;-75
2023/04/26 07:09:13;;;;;;;3.87;2.90;;;12.30;64.70;;;;;;4974128;28;20451;-76
2023/04/26 07:11:41;;;;;;;3.40;2.60;;;12.20;63.10;;;;;;4973896;28;20462;-73
2023/04/26 07:14:07;;;;;;;2.60;2.30;;;12.50;62.70;;;;;;4973944;28;20451;-75
2023/04/26 07:16:34;;;;;;;2.63;2.00;;;12.70;62.30;;;;;;4974038;28;20450;-77
2023/04/26 07:19:01;;;;;;;2.77;1.93;;;12.50;62.10;;;;;;4973967;28;20496;-75
2023/04/26 07:21:27;;;;;;;2.80;2.00;;;12.20;59.80;;;;;;4974192;28;20489;-76
2023/04/26 07:23:55;;;;;;;3.13;2.00;;;12.10;59.30;;;;;;4974360;28;20504;-75
2023/04/26 07:26:22;;;;;;;2.87;2.10;;;12.10;59.00;;;;;;4974487;28;20446;-76
2023/04/26 07:28:50;;;;;;;3.83;2.07;;;12.00;59.60;;;;;;4976886;28;20960;-76
2023/04/26 07:31:17;;;;;;;3.03;2.07;;;12.10;60.80;;;;;;4977320;28;20466;-76
2023/04/26 07:33:44;;;;;;;3.07;1.90;;;12.40;61.30;;;;;;4977265;28;21014;-76
2023/04/26 07:36:11;;;;;;;3.07;2.30;;;12.90;57.50;;;;;;4977579;28;20482;-75
2023/04/26 07:38:37;;;;;;;3.20;2.10;;;12.70;58.70;;;;;;4977421;28;20445;-76
2023/04/26 07:41:04;;;;;;;2.60;1.87;;;12.40;59.70;;;;;;4977196;28;20494;-75
2023/04/26 07:43:31;;;;;;;3.03;1.90;;;12.10;57.80;;;;;;4977435;28;20481;-76
2023/04/26 07:46:01;;;;;;;3.70;2.27;;;12.00;58.70;;;;;;4977260;28;20453;-75
2023/04/26 07:48:28;;;;;;;2.57;1.83;;;12.20;59.60;;;;;;4977913;28;20856;-75
2023/04/26 07:50:55;;;;;;;3.20;2.00;;;12.20;57.60;;;;;;4976958;28;20470;-74
2023/04/26 07:53:22;;;;;;;3.57;2.20;;;12.20;58.70;;;;;;4976984;28;20450;-76
2023/04/26 07:55:50;;;;;;;2.73;1.77;;;12.20;59.00;;;;;;4976943;28;20454;-75
2023/04/26 07:58:18;;;;;;;2.60;2.00;;;12.30;58.70;;;;;;4976906;28;20463;-73
2023/04/26 08:00:44;;;;;;;2.93;1.73;;;12.30;57.90;;;;;;4976378;28;21074;-76
2023/04/26 08:03:15;;;;;;;2.97;1.90;;;12.80;55.00;;;;;;4977064;28;20496;-75
2023/04/26 08:05:41;;;;;;;2.10;1.60;;;12.30;55.80;;;;;;4976845;28;20431;-75
2023/04/26 08:08:08;;;;;;;4.13;2.20;;;12.30;56.00;;;;;;4976723;28;20454;-75
2023/04/26 08:10:35;;;;;;;2.93;2.10;;;12.00;56.70;;;;;;4976576;28;20504;-74
2023/04/26 08:13:02;;;;;;;3.50;1.60;;;11.80;58.40;;;;;;4976524;28;20458;-74
2023/04/26 08:15:31;;;;;;;3.00;1.87;;;12.00;57.30;;;;;;4976559;28;20446;-74
2023/04/26 08:17:58;;;;;;;2.50;2.03;;;12.00;58.20;;;;;;4976547;28;20520;-74
2023/04/26 08:20:26;;;;;;;2.20;1.80;;;12.40;57.90;;;;;;4976378;28;20458;-74
2023/04/26 08:22:55;;;;;;;3.37;2.23;;;12.20;56.70;;;;;;4976472;28;20521;-74
2023/04/26 08:25:22;;;;;;;3.20;2.00;;;12.00;56.30;;;;;;4976397;28;20469;-74
2023/04/26 08:27:49;;;;;;;3.47;2.20;;;12.20;58.70;;;;;;4976387;28;20944;-75
2023/04/26 08:30:16;;;;;;;2.50;1.73;;;12.50;57.80;;;;;;4976283;28;20497;-74
2023/04/26 08:32:43;;;;;;;3.00;2.30;;;12.90;57.10;;;;;;4976399;28;20516;-74
2023/04/26 08:35:10;;;;;;;2.77;2.00;;;12.60;56.60;;;;;;4976716;28;20449;-74
2023/04/26 08:37:38;;;;;;;2.50;2.00;;;12.80;56.30;;;;;;4976508;28;20443;-74
2023/04/26 08:40:08;;;;;;;2.80;1.93;;;13.00;55.20;;;;;;4976241;28;20446;-76
2023/04/26 08:42:40;;;;;;;2.60;2.13;;;12.90;56.10;;;;;;4976101;28;20576;-74
2023/04/26 08:45:10;;;;;;;3.03;2.03;;;12.10;58.20;;;;;;4976215;28;20438;-74
2023/04/26 08:47:42;;;;;;;4.47;2.57;;;11.70;59.70;;;;;;4976642;28;20450;-74
2023/04/26 08:50:13;;;;;;;5.07;2.30;;;11.50;59.50;;;;;;4976421;28;20427;-74
2023/04/26 08:52:43;;;;;;;4.50;2.50;;;11.40;60.80;;;;;;4976217;28;20550;-75
2023/04/26 08:55:11;;;;;;;3.20;2.43;;;11.40;60.30;;;;;;4976071;28;20818;-75
2023/04/26 08:57:39;;;;;;;2.83;2.13;;;11.30;60.20;;;;;;4976232;28;20497;-75
2023/04/26 09:00:11;;;;;;;3.50;2.20;;;11.10;60.50;;;;;;4975846;28;20542;-75
2023/04/26 09:02:40;;;;;;;2.70;2.10;;;11.00;61.10;;;;;;4975553;28;20995;-75
2023/04/26 09:05:08;;;;;;;3.13;2.10;;;10.90;62.00;;;;;;4976065;28;20458;-75
2023/04/26 09:07:41;;;;;;;2.90;2.10;;;10.90;61.00;;;;;;4975764;28;20466;-75
2023/04/26 09:10:10;;;;;;;2.83;2.50;;;11.00;61.20;;;;;;4975713;28;20530;-74
2023/04/26 09:12:37;;;;;;;3.50;2.47;;;11.40;59.50;;;;;;4975610;28;20478;-75
2023/04/26 09:15:06;;;;;;;4.20;2.33;;;11.30;59.00;;;;;;4975488;28;20454;-75
2023/04/26 09:17:35;;;;;;;3.00;2.20;;;11.50;60.70;;;;;;4975485;28;20477;-75
2023/04/26 09:20:16;;;;;;;2.40;1.63;;;11.70;60.00;;;;;;4975453;28;20450;-74
2023/04/26 09:22:45;;;;;;;3.90;2.40;;;12.00;59.90;;;;;;4974906;28;20991;-75
2023/04/26 09:25:13;;;;;;;3.20;2.20;;;12.10;58.20;;;;;;4975352;28;20544;-75
2023/04/26 09:27:42;;;;;;;3.27;2.10;;;12.30;56.80;;;;;;4975304;28;20456;-75
2023/04/26 09:30:11;;;;;;;3.80;1.80;;;12.40;57.00;;;;;;4975307;28;20446;-75
2023/04/26 09:32:49;;;;;;;3.37;1.83;;;12.60;57.10;;;;;;4975219;28;20462;-74
2023/04/26 09:35:23;;;;;;;3.13;2.40;;;12.80;57.30;;;;;;4975246;28;20478;-74
2023/04/26 09:37:57;;;;;;;7.47;2.50;;;13.00;57.40;;;;;;4975214;28;20485;-74
2023/04/26 09:40:25;;;;;;;3.30;2.07;;;13.10;56.40;;;;;;4974789;28;20419;-75
2023/04/26 09:42:59;;;;;;;5.27;2.50;;;13.30;55.70;;;;;;4974976;28;20541;-75
2023/04/26 09:45:27;;;;;;;4.10;2.07;;;13.20;56.30;;;;;;4974771;28;20794;-75
2023/04/26 09:47:54;;;;;;;3.80;2.23;;;12.90;56.70;;;;;;4974956;28;20450;-75
2023/04/26 09:50:28;;;;;;;2.60;2.27;;;13.10;57.30;;;;;;4974339;28;20477;-76
2023/04/26 09:52:56;;;;;;;4.07;2.40;;;13.30;58.60;;;;;;4975120;28;20442;-72
2023/04/26 09:55:28;;;;;;;2.60;2.10;;;13.30;56.80;;;;;;4974848;28;20450;-72
2023/04/26 09:57:55;;;;;;;3.57;2.40;;;13.40;55.90;;;;;;4974767;28;20454;-70
2023/04/26 10:00:23;;;;;;;3.03;2.53;;;12.70;58.00;;;;;;4974690;28;20801;-73
2023/04/26 10:02:50;;;;;;;3.03;2.37;;;12.80;58.50;;;;;;4974263;28;21136;-72
2023/04/26 10:05:17;;;;;;;3.77;2.17;;;12.70;59.00;;;;;;4974555;28;20446;-72
2023/04/26 10:07:45;;;;;;;2.40;2.00;;;12.80;59.80;;;;;;4974304;28;20951;-74
2023/04/26 10:10:13;;;;;;;3.50;2.90;;;12.60;59.00;;;;;;4974222;28;20501;-74
2023/04/26 10:12:41;;;;;;;3.17;2.20;;;12.30;58.00;;;;;;4974459;28;20466;-74
2023/04/26 10:15:10;;;;;;;2.70;2.17;;;12.10;59.80;;;;;;4989994;23;20498;-75
2023/04/26 10:17:37;;;;;;;3.90;2.63;;;12.00;60.40;;;;;;4974319;28;20505;-77
2023/04/26 10:20:06;;;;;;;3.43;2.17;;;11.90;60.60;;;;;;4974347;28;20863;-76
2023/04/26 10:22:38;;;;;;;3.07;2.53;;;12.10;61.00;;;;;;4974371;28;20522;-76
2023/04/26 10:25:07;;;;;;;3.63;2.37;;;12.10;60.00;;;;;;4973762;28;20814;-76
2023/04/26 10:27:52;;;;;;;3.07;2.03;;;12.30;60.40;;;;;;4974137;28;20450;-76
2023/04/26 10:30:25;;;;;;;2.90;2.27;;;12.40;59.00;;;;;;4974307;28;20446;-76
2023/04/26 10:33:16;;;;;;;3.20;2.30;;;12.80;59.40;;;;;;4973935;28;20908;-76
2023/04/26 10:36:03;;;;;;;3.10;2.30;;;13.20;57.40;;;;;;4974213;28;20505;-76
2023/04/26 10:38:30;;;;;;;2.50;2.00;;;13.20;55.80;;;;;;4973917;28;20434;-76
2023/04/26 10:41:29;;;;;;;3.00;2.10;;;13.10;55.30;;;;;;4974227;28;20458;-76
2023/04/26 10:44:00;;;;;;;3.20;2.30;;;12.90;56.90;;;;;;4974696;28;20542;-77
2023/04/26 10:46:35;;;;;;;2.27;1.77;;;12.80;55.90;;;;;;4974007;28;20908;-76
2023/04/26 10:49:14;;;;;;;3.47;2.27;;;12.80;56.80;;;;;;4973896;28;20877;-77
2023/04/26 10:51:41;;;;;;;3.70;2.30;;;12.80;57.20;;;;;;4974684;28;20434;-76
2023/04/26 10:54:07;;;;;;;3.40;2.20;;;13.00;56.20;;;;;;4974010;28;20474;-77
2023/04/26 10:56:52;;;;;;;3.47;2.30;;;13.40;56.10;;;;;;4973760;28;20438;-76
2023/04/26 10:59:21;;;;;;;3.60;2.23;;;13.20;56.10;;;;;;4973896;28;20914;-76
2023/04/26 11:01:48;;;;;;;2.60;2.03;;;12.70;56.00;;;;;;4976759;28;20488;-76
2023/04/26 11:04:16;;;;;;;3.70;1.90;;;12.50;56.90;;;;;;4981891;28;20472;-76
2023/04/26 11:06:49;;;;;;;2.30;2.00;;;12.50;57.40;;;;;;4981605;28;20476;-76
2023/04/26 11:09:36;;;;;;;3.20;2.10;;;12.40;58.40;;;;;;4981879;28;20465;-76
2023/04/26 11:12:10;;;;;;;2.67;2.00;;;12.40;57.80;;;;;;4984428;28;20489;-77
2023/04/26 11:14:40;;;;;;;2.60;2.00;;;12.40;57.50;;;;;;4985294;28;20470;-78
2023/04/26 11:17:08;;;;;;;2.97;2.67;;;12.90;58.20;;;;;;4984667;28;20458;-76
2023/04/26 11:19:35;;;;;;;3.87;2.40;;;13.30;57.00;;;;;;4985525;28;20453;-77
2023/04/26 11:22:03;;;;;;;3.00;2.30;;;13.70;57.60;;;;;;4985505;28;20485;-77
2023/04/26 11:24:31;;;;;;;2.17;1.70;;;13.60;54.90;;;;;;4985763;28;20530;-76
2023/04/26 11:26:58;;;;;;;2.93;1.97;;;13.50;57.40;;;;;;4984693;28;20450;-75
2023/04/26 11:29:26;;;;;;;3.13;1.60;;;13.70;57.70;;;;;;4980864;28;20454;-76
2023/04/26 11:31:56;;;;;;;4.20;2.33;;;14.10;54.40;;;;;;4980145;28;20462;-76
2023/04/26 11:34:24;;;;;;;3.83;2.60;;;14.10;54.80;;;;;;4980008;28;20474;-76
2023/04/26 11:36:53;;;;;;;2.90;1.87;;;14.20;56.80;;;;;;4979566;28;20998;-77
2023/04/26 11:39:21;;;;;;;3.33;2.07;;;14.20;55.00;;;;;;4978972;28;20460;-76
2023/04/26 11:41:48;;;;;;;2.47;2.07;;;13.70;54.30;;;;;;4978404;28;21010;-76
2023/04/26 11:44:18;;;;;;;2.30;2.00;;;13.60;55.10;;;;;;4977790;28;20474;-75
2023/04/26 11:46:47;;;;;;;3.10;1.97;;;13.40;56.10;;;;;;4977270;28;20541;-75
2023/04/26 11:49:16;;;;;;;1.83;1.30;;;13.10;53.90;;;;;;4977377;28;20518;-75
2023/04/26 11:51:43;;;;;;;2.20;1.70;;;13.10;54.60;;;;;;4977558;28;20557;-75
2023/04/26 11:54:10;;;;;;;3.10;1.93;;;13.20;55.30;;;;;;4977089;28;20475;-76
2023/04/26 11:56:38;;;;;;;3.03;1.70;;;13.40;56.80;;;;;;4977106;28;20948;-76
2023/04/26 11:59:05;;;;;;;2.67;1.37;;;13.60;55.90;;;;;;4977022;28;20454;-75
2023/04/26 12:01:32;;;;;;;2.87;2.17;;;14.00;54.20;;;;;;4976974;28;20454;-75
2023/04/26 12:03:59;;;;;;;2.23;1.43;;;14.30;53.00;;;;;;4976690;28;20500;-76
2023/04/26 12:06:31;;;;;;;2.17;1.60;;;14.50;53.20;;;;;;4977115;28;20458;-76
2023/04/26 12:08:58;;;;;;;3.63;2.20;;;14.80;51.70;;;;;;4977460;28;20502;-76
2023/04/26 12:11:26;;;;;;;2.87;1.80;;;14.40;52.30;;;;;;4977115;28;20538;-76
2023/04/26 12:13:53;;;;;;;2.50;1.47;;;14.00;53.80;;;;;;4976541;28;20533;-76
2023/04/26 12:16:19;;;;;;;3.60;1.77;;;14.40;54.90;;;;;;4977201;28;20438;-76
2023/04/26 12:18:50;;;;;;;2.90;2.17;;;14.20;52.20;;;;;;4976765;28;20947;-76
2023/04/26 12:21:17;;;;;;;2.90;2.20;;;14.40;55.00;;;;;;4977221;28;20439;-76
2023/04/26 12:23:46;;;;;;;2.77;1.97;;;14.40;53.60;;;;;;4977444;28;20582;-76
2023/04/26 12:26:14;;;;;;;3.50;2.37;;;14.40;53.80;;;;;;4976761;28;20474;-76
2023/04/26 12:28:41;;;;;;;2.40;1.70;;;14.20;55.00;;;;;;4976681;28;20876;-76
2023/04/26 12:31:08;;;;;;;2.83;2.00;;;14.20;54.20;;;;;;4977427;28;20554;-76
2023/04/26 12:33:35;;;;;;;3.17;2.50;;;14.40;53.50;;;;;;4976747;28;20446;-77
2023/04/26 12:36:07;;;;;;;2.53;1.83;;;14.50;52.90;;;;;;4977354;28;20458;-78
2023/04/26 12:38:34;;;;;;;3.93;1.67;;;14.70;55.50;;;;;;4976999;28;20525;-77
2023/04/26 12:41:02;;;;;;;2.50;1.60;;;15.00;51.40;;;;;;4976189;28;20448;-76
2023/04/26 12:43:28;;;;;;;3.53;2.27;;;15.40;51.30;;;;;;4976062;28;20494;-78
2023/04/26 12:45:55;;;;;;;2.67;1.60;;;15.90;51.50;;;;;;4976795;28;20450;-77
2023/04/26 12:48:22;;;;;;;2.93;1.37;;;16.10;49.50;;;;;;4975813;28;20956;-75
2023/04/26 12:50:48;;;;;;;4.70;2.10;;;16.40;50.50;;;;;;4975666;28;20932;-75
2023/04/26 12:53:15;;;;;;;3.30;1.87;;;16.50;49.40;;;;;;4975675;28;20868;-76
2023/04/26 12:55:42;;;;;;;2.07;1.40;;;16.70;50.00;;;;;;4976521;28;21015;-76
2023/04/26 12:58:10;;;;;;;2.47;2.00;;;16.10;47.20;;;;;;4975686;28;20509;-76
2023/04/26 13:00:37;;;;;;;2.20;1.43;;;14.90;49.70;;;;;;4975568;28;20454;-75
2023/04/26 13:03:04;;;;;;;2.43;1.50;;;14.60;50.70;;;;;;4976039;28;20500;-75
2023/04/26 13:05:31;;;;;;;4.00;1.63;;;14.50;52.40;;;;;;4976080;28;20470;-76
2023/04/26 13:07:59;;;;;;;2.13;1.50;;;14.50;50.60;;;;;;4975442;28;20461;-76
2023/04/26 13:10:25;;;;;;;2.47;1.60;;;14.60;51.50;;;;;;4975532;28;20821;-76
2023/04/26 13:12:53;;;;;;;1.90;1.20;;;15.00;50.90;;;;;;4975396;28;20450;-76
2023/04/26 13:15:23;;;;;;;2.73;1.30;;;15.20;52.00;;;;;;4975235;28;20611;-75
2023/04/26 13:17:49;;;;;;;4.00;1.50;;;15.50;50.60;;;;;;4975677;28;20457;-75
2023/04/26 13:20:16;;;;;;;2.53;1.37;;;15.50;49.90;;;;;;4975631;28;20450;-75
2023/04/26 13:22:43;;;;;;;2.50;1.30;;;15.50;48.70;;;;;;4975440;28;20486;-75
2023/04/26 13:25:11;;;;;;;3.43;1.60;;;15.90;49.50;;;;;;4974661;28;20470;-75
2023/04/26 13:27:38;;;;;;;2.20;1.43;;;16.30;47.50;;;;;;4975864;28;20460;-75
2023/04/26 13:30:06;;;;;;;2.27;1.20;;;16.60;46.50;;;;;;4974917;28;20574;-74
2023/04/26 13:32:35;;;;;;;3.90;1.50;;;16.90;47.00;;;;;;4975124;28;20850;-75
2023/04/26 13:35:03;;;;;;;2.33;1.40;;;17.30;47.90;;;;;;4975058;28;20478;-75
2023/04/26 13:37:30;;;;;;;2.80;1.50;;;17.70;46.10;;;;;;4975211;28;20464;-75
2023/04/26 13:39:57;;;;;;;3.30;1.80;;;17.80;47.60;;;;;;4975072;28;20462;-76
2023/04/26 13:42:24;;;;;;;2.20;1.40;;;18.00;47.20;;;;;;4975232;28;20478;-75
2023/04/26 13:44:51;;;;;;;3.40;1.83;;;18.00;46.40;;;;;;4974856;28;20474;-75
2023/04/26 13:47:17;;;;;;;2.57;1.40;;;17.60;44.50;;;;;;4974527;28;20902;-72
2023/04/26 13:49:45;;;;;;;2.37;1.50;;;18.00;45.10;;;;;;4974914;28;20454;-75
2023/04/26 13:52:12;;;;;;;2.13;1.27;;;18.00;46.10;;;;;;4974828;28;20512;-76
2023/04/26 13:54:39;;;;;;;2.00;1.10;;;17.30;46.40;;;;;;4974786;28;20524;-76
2023/04/26 13:57:06;;;;;;;1.70;1.00;;;16.70;47.50;;;;;;4975065;28;20446;-75
2023/04/26 13:59:33;;;;;;;2.00;1.30;;;16.90;45.40;;;;;;4974439;28;20913;-75
2023/04/26 14:01:59;;;;;;;2.80;1.60;;;16.70;44.40;;;;;;4974743;28;20512;-74
2023/04/26 14:04:26;;;;;;;2.60;1.13;;;16.60;45.80;;;;;;4974306;28;20489;-75
2023/04/26 14:06:54;;;;;;;2.10;1.27;;;16.50;44.90;;;;;;4974274;28;20978;-75
2023/04/26 14:09:21;;;;;;;2.43;1.17;;;16.60;46.20;;;;;;4974599;28;20863;-75
2023/04/26 14:11:48;;;;;;;1.80;1.10;;;16.80;46.50;;;;;;4974520;28;20513;-75
2023/04/26 14:14:14;;;;;;;1.70;1.17;;;16.80;46.70;;;;;;4974182;28;20473;-74
2023/04/26 14:16:42;;;;;;;2.10;1.10;;;16.70;45.50;;;;;;4974469;28;20427;-76
2023/04/26 14:19:09;;;;;;;1.90;1.10;;;16.90;46.30;;;;;;4974427;28;20546;-75
2023/04/26 14:21:35;;;;;;;2.00;1.50;;;16.70;44.60;;;;;;4974415;28;20500;-75
2023/04/26 14:24:04;;;;;;;2.10;1.40;;;16.50;44.60;;;;;;4974190;28;20501;-76
2023/04/26 14:26:32;;;;;;;2.00;1.23;;;16.20;46.50;;;;;;4974309;28;20512;-76
2023/04/26 14:28:59;;;;;;;2.00;1.20;;;16.20;45.30;;;;;;4973945;28;20904;-76
2023/04/26 14:31:26;;;;;;;2.33;1.30;;;15.60;46.30;;;;;;4974426;28;20875;-75
2023/04/26 14:33:53;;;;;;;2.20;1.30;;;15.40;49.50;;;;;;4974457;28;20472;-76
2023/04/26 14:36:20;;;;;;;3.93;1.70;;;15.20;50.00;;;;;;4975415;28;20457;-76
2023/04/26 14:38:47;;;;;;;2.93;1.77;;;15.40;50.00;;;;;;4978384;28;20449;-76
2023/04/26 14:41:15;;;;;;;2.07;1.30;;;15.50;49.90;;;;;;4978190;28;20458;-76
2023/04/26 14:43:42;;;;;;;2.60;1.60;;;15.80;50.80;;;;;;4978527;28;20516;-76
2023/04/26 14:46:09;;;;;;;2.53;1.47;;;15.90;50.50;;;;;;4978099;28;20458;-75
2023/04/26 14:48:35;;;;;;;2.33;1.50;;;16.10;49.10;;;;;;4978164;28;20457;-75
2023/04/26 14:51:02;;;;;;;2.20;1.27;;;16.20;49.70;;;;;;4977788;28;20438;-75
2023/04/26 14:53:29;;;;;;;2.27;1.40;;;16.30;49.20;;;;;;4977559;28;20936;-76
2023/04/26 14:55:56;;;;;;;2.77;1.47;;;16.30;49.50;;;;;;4977886;28;20453;-77
2023/04/26 14:58:24;;;;;;;2.03;1.33;;;16.50;48.70;;;;;;4977913;28;20509;-76
2023/04/26 15:00:51;;;;;;;2.83;1.80;;;16.50;49.10;;;;;;4977750;28;20446;-76
2023/04/26 15:03:18;;;;;;;2.73;1.67;;;16.30;48.10;;;;;;4977596;28;20486;-76
2023/04/26 15:05:45;;;;;;;2.70;1.60;;;16.30;49.10;;;;;;4979015;28;20457;-75
2023/04/26 15:08:11;;;;;;;3.30;1.40;;;16.00;48.90;;;;;;4977971;28;20450;-74
2023/04/26 15:10:38;;;;;;;3.33;1.57;;;16.30;49.20;;;;;;4978089;28;20485;-75
2023/04/26 15:13:05;;;;;;;2.67;1.67;;;16.20;49.00;;;;;;4978371;28;20454;-75
2023/04/26 15:15:33;;;;;;;2.20;1.60;;;16.10;49.20;;;;;;4977685;28;20482;-75
2023/04/26 15:18:00;;;;;;;2.90;1.50;;;15.70;49.30;;;;;;4977643;28;20446;-76
2023/04/26 15:20:27;;;;;;;2.40;1.60;;;15.50;49.70;;;;;;4977133;28;20937;-75
2023/04/26 15:22:54;;;;;;;2.57;1.50;;;15.70;50.50;;;;;;4977300;28;20943;-76
2023/04/26 15:25:20;;;;;;;2.80;1.50;;;15.80;50.50;;;;;;4977151;28;20841;-76
2023/04/26 15:27:49;;;;;;;2.10;1.43;;;15.90;50.40;;;;;;4977467;28;20939;-76
2023/04/26 15:30:16;;;;;;;2.73;1.37;;;16.00;49.40;;;;;;4977433;28;20450;-75
2023/04/26 15:32:47;;;;;;;3.40;1.70;;;16.20;50.50;;;;;;4977051;28;20457;-76
2023/04/26 15:35:14;;;;;;;2.77;1.37;;;16.30;49.30;;;;;;4976871;28;20553;-76
2023/04/26 15:37:42;;;;;;;2.20;1.70;;;16.40;49.30;;;;;;4977483;28;20791;-76
2023/04/26 15:40:10;;;;;;;2.73;1.93;;;16.30;49.20;;;;;;4977017;28;20482;-76
2023/04/26 15:42:37;;;;;;;2.80;1.80;;;16.30;50.00;;;;;;4976796;28;20496;-76
2023/04/26 15:45:05;;;;;;;3.63;1.57;;;16.10;49.70;;;;;;4976736;28;20490;-75
2023/04/26 15:47:31;;;;;;;3.83;1.90;;;15.90;50.60;;;;;;4976383;28;20458;-76
2023/04/26 15:50:03;;;;;;;2.50;1.70;;;16.00;50.40;;;;;;4976672;28;20553;-75
2023/04/26 15:52:31;;;;;;;2.40;1.60;;;15.80;49.30;;;;;;4976570;28;20940;-75
2023/04/26 15:54:58;;;;;;;3.13;1.90;;;15.80;50.80;;;;;;4976846;28;20462;-76
2023/04/26 15:57:25;;;;;;;4.50;1.37;;;16.00;50.70;;;;;;4977308;28;20446;-75
2023/04/26 15:59:51;;;;;;;3.23;1.73;;;15.80;50.50;;;;;;4976608;28;20528;-76
2023/04/26 16:02:18;;;;;;;3.57;2.10;;;15.70;50.90;;;;;;4976882;28;20469;-74
2023/04/26 16:04:45;;;;;;;2.27;1.47;;;15.80;51.40;;;;;;4976041;28;20490;-75
2023/04/26 16:07:13;;;;;;;3.07;1.40;;;15.80;51.90;;;;;;4976559;28;20447;-75
2023/04/26 16:09:40;;;;;;;2.70;2.10;;;15.90;52.50;;;;;;4976000;28;20962;-75
2023/04/26 16:12:07;;;;;;;2.20;1.63;;;15.90;52.20;;;;;;4975877;28;21014;-75
2023/04/26 16:14:33;;;;;;;2.10;1.83;;;15.90;51.90;;;;;;4976573;28;20494;-75
2023/04/26 16:17:02;;;;;;;2.57;1.63;;;15.90;52.10;;;;;;4976226;28;20493;-75
2023/04/26 16:19:29;;;;;;;5.10;2.17;;;15.60;52.40;;;;;;4976394;28;20454;-74
2023/04/26 16:21:56;;;;;;;4.03;2.43;;;15.60;52.50;;;;;;4976050;28;20477;-75
2023/04/26 16:24:24;;;;;;;1.90;1.40;;;15.60;52.90;;;;;;4975837;28;20493;-75
2023/04/26 16:26:51;;;;;;;3.10;2.10;;;15.70;52.40;;;;;;4975905;28;20449;-75
2023/04/26 16:29:17;;;;;;;2.80;2.23;;;15.60;52.50;;;;;;4975821;28;20505;-75
2023/04/26 16:31:44;;;;;;;3.70;2.30;;;15.40;52.80;;;;;;4975920;28;20446;-75
2023/04/26 16:34:11;;;;;;;3.80;2.30;;;15.50;53.30;;;;;;4976210;28;20858;-74
2023/04/26 16:36:37;;;;;;;2.60;1.80;;;15.50;52.20;;;;;;4976191;28;20486;-75
2023/04/26 16:39:04;;;;;;;2.70;2.10;;;15.40;53.00;;;;;;4976224;28;20451;-75
2023/04/26 16:41:32;;;;;;;3.07;1.80;;;15.40;53.60;;;;;;4976436;28;20505;-75
2023/04/26 16:43:59;;;;;;;2.73;1.73;;;15.40;53.30;;;;;;4975826;28;20502;-75
2023/04/26 16:46:26;;;;;;;3.20;2.13;;;15.50;52.80;;;;;;4975833;28;20453;-75
2023/04/26 16:48:53;;;;;;;2.33;1.80;;;15.50;52.50;;;;;;4976143;28;20450;-76
2023/04/26 16:51:20;;;;;;;2.60;1.50;;;15.30;52.80;;;;;;4975889;28;20450;-76
2023/04/26 16:53:46;;;;;;;3.67;2.00;;;15.20;53.30;;;;;;4975458;28;20474;-76